Time;durP1;ratioP1;P1;durP2;ratioP2;P2;SDS_P1;SDS_P2;PMS_P1;PMS_P2;Temp;Humidity;BMP_temperature;BMP_pressure;BME280_temperature;BME280_humidity;BME280_pressure;Samples;Min_cycle;Max_cycle;Signal;HPM_P1;HPM_P2
2022/10/13 00:01:15;;;;;;;11.80;9.30;;;13.00;99.90;;;;;;5000203;28;20455;-82
2022/10/13 00:03:46;;;;;;;9.77;8.30;;;13.10;99.90;;;;;;4995883;28;20457;-82
2022/10/13 00:06:16;;;;;;;13.67;9.87;;;13.00;99.90;;;;;;5002281;28;20499;-83
2022/10/13 00:08:43;;;;;;;13.43;8.07;;;13.00;99.90;;;;;;5014038;28;20500;-81
2022/10/13 00:11:24;;;;;;;10.83;9.63;;;13.00;99.90;;;;;;5012285;28;20458;-82
2022/10/13 00:13:57;;;;;;;13.60;9.27;;;13.00;99.90;;;;;;4993139;28;20454;-84
2022/10/13 00:16:25;;;;;;;10.33;9.23;;;13.10;99.90;;;;;;4997629;28;20569;-82
2022/10/13 00:18:52;;;;;;;13.60;9.63;;;13.10;99.90;;;;;;5010352;28;20525;-82
2022/10/13 00:21:24;;;;;;;9.83;8.83;;;12.90;99.90;;;;;;4993236;28;20470;-81
2022/10/13 00:23:52;;;;;;;10.03;9.03;;;12.70;99.90;;;;;;4991880;28;20464;-82
2022/10/13 00:26:22;;;;;;;11.33;8.47;;;12.70;99.90;;;;;;4991662;28;21032;-82
2022/10/13 00:28:49;;;;;;;11.93;8.40;;;12.80;99.90;;;;;;5010640;28;20458;-80
2022/10/13 00:31:21;;;;;;;9.93;8.50;;;12.80;99.90;;;;;;5025721;28;20517;-80
2022/10/13 00:33:48;;;;;;;11.03;8.60;;;12.90;99.90;;;;;;5007032;28;20474;-81
2022/10/13 00:36:16;;;;;;;10.30;8.47;;;12.80;99.90;;;;;;4994882;28;20507;-82
2022/10/13 00:38:43;;;;;;;9.07;7.53;;;12.80;99.90;;;;;;4988658;28;20518;-81
2022/10/13 00:41:13;;;;;;;15.03;11.90;;;12.80;99.90;;;;;;4987137;28;20459;-81
2022/10/13 00:44:00;;;;;;;13.20;8.60;;;12.90;99.90;;;;;;4990511;28;20486;-83
2022/10/13 00:46:30;;;;;;;9.70;8.70;;;13.00;99.90;;;;;;4995581;28;20511;-82
2022/10/13 00:49:05;;;;;;;13.63;9.40;;;12.80;99.90;;;;;;4997679;28;20455;-80
2022/10/13 00:51:39;;;;;;;12.07;9.33;;;12.80;99.90;;;;;;4990439;28;20468;-81
2022/10/13 00:54:09;;;;;;;10.70;9.37;;;12.90;99.90;;;;;;4993530;28;20470;-82
2022/10/13 00:56:40;;;;;;;11.73;8.40;;;12.90;99.90;;;;;;4988943;28;20479;-83
2022/10/13 00:59:21;;;;;;;11.50;9.63;;;13.10;99.90;;;;;;4995116;28;20491;-82
2022/10/13 01:01:50;;;;;;;11.80;10.07;;;13.20;99.90;;;;;;4987725;28;20704;-83
2022/10/13 01:04:21;;;;;;;10.30;9.20;;;13.30;99.90;;;;;;4994295;28;20543;-82
2022/10/13 01:06:48;;;;;;;11.00;9.20;;;13.10;99.90;;;;;;4988813;28;20519;-82
2022/10/13 01:09:15;;;;;;;11.00;8.97;;;13.20;99.90;;;;;;4998088;28;20537;-81
2022/10/13 01:12:10;;;;;;;13.93;8.73;;;13.20;99.90;;;;;;4995951;28;20455;-82
2022/10/13 01:14:53;;;;;;;12.00;9.57;;;13.20;99.90;;;;;;4986641;28;20831;-81
2022/10/13 01:17:37;;;;;;;14.70;9.53;;;13.30;99.90;;;;;;5001906;28;20695;-81
2022/10/13 01:20:39;;;;;;;10.30;9.20;;;13.20;99.90;;;;;;5004062;28;20452;-82
2022/10/13 01:23:24;;;;;;;13.37;9.00;;;13.20;99.90;;;;;;5004606;28;20496;-82
2022/10/13 01:26:19;;;;;;;12.77;9.50;;;13.20;99.90;;;;;;4991639;28;20467;-82
2022/10/13 01:29:08;;;;;;;13.07;9.33;;;13.20;99.90;;;;;;5004404;28;20447;-82
2022/10/13 01:31:47;;;;;;;11.33;8.87;;;13.00;99.90;;;;;;5000311;28;20488;-82
2022/10/13 01:34:34;;;;;;;13.60;9.40;;;12.90;99.90;;;;;;5006897;28;20443;-82
2022/10/13 01:37:35;;;;;;;18.10;9.67;;;12.90;99.90;;;;;;4994590;28;20478;-81
2022/10/13 01:40:31;;;;;;;11.07;8.80;;;12.90;99.90;;;;;;5009492;28;20482;-82
2022/10/13 01:43:20;;;;;;;11.83;9.63;;;12.80;99.90;;;;;;5004465;28;20450;-81
2022/10/13 01:46:00;;;;;;;12.07;8.70;;;12.70;99.90;;;;;;5023068;28;20458;-81
2022/10/13 01:48:27;;;;;;;15.80;10.33;;;12.70;99.90;;;;;;5013721;28;20455;-82
2022/10/13 01:50:57;;;;;;;11.93;8.43;;;12.90;99.90;;;;;;5018024;28;20937;-81
2022/10/13 01:53:24;;;;;;;15.33;9.37;;;12.80;99.90;;;;;;4995166;28;20483;-82
2022/10/13 01:55:54;;;;;;;11.30;9.03;;;12.90;99.90;;;;;;4994344;28;20508;-81
2022/10/13 01:58:22;;;;;;;13.43;9.23;;;12.80;99.90;;;;;;5007498;28;20565;-82
2022/10/13 02:01:12;;;;;;;13.90;9.60;;;12.90;99.90;;;;;;5003541;28;20490;-82
2022/10/13 02:04:06;;;;;;;11.30;8.53;;;12.90;99.90;;;;;;4994708;28;20459;-81
2022/10/13 02:06:35;;;;;;;19.80;11.60;;;12.90;99.90;;;;;;5012626;28;20841;-83
2022/10/13 02:09:12;;;;;;;20.67;10.40;;;12.80;99.90;;;;;;5009072;28;20490;-82
2022/10/13 02:11:47;;;;;;;14.13;9.50;;;12.80;99.90;;;;;;4985016;28;20514;-81
2022/10/13 02:14:21;;;;;;;14.63;11.00;;;12.80;99.90;;;;;;4994802;28;20459;-82
2022/10/13 02:16:49;;;;;;;13.03;9.80;;;12.80;99.90;;;;;;4995841;28;20475;-82
2022/10/13 02:19:17;;;;;;;12.87;8.83;;;12.70;99.90;;;;;;5005055;28;20512;-82
2022/10/13 02:21:45;;;;;;;19.47;10.20;;;12.70;99.90;;;;;;4998664;28;20456;-83
2022/10/13 02:24:12;;;;;;;13.90;10.13;;;12.70;99.90;;;;;;5005467;28;20459;-83
2022/10/13 02:26:40;;;;;;;14.93;9.70;;;12.70;99.90;;;;;;4994026;28;20550;-82
2022/10/13 02:29:12;;;;;;;13.30;10.33;;;12.70;99.90;;;;;;4999755;28;20466;-82
2022/10/13 02:31:40;;;;;;;15.33;10.10;;;12.60;99.90;;;;;;4987254;28;20522;-81
2022/10/13 02:34:07;;;;;;;15.17;10.83;;;12.50;99.90;;;;;;4992032;28;20505;-83
2022/10/13 02:36:33;;;;;;;15.33;11.53;;;12.50;99.90;;;;;;4992838;28;20490;-82
2022/10/13 02:39:00;;;;;;;15.67;10.90;;;12.50;99.90;;;;;;4995923;28;20518;-83
2022/10/13 02:41:27;;;;;;;16.27;10.47;;;12.50;99.90;;;;;;5004472;28;20454;-82
2022/10/13 02:43:53;;;;;;;14.00;11.00;;;12.60;99.90;;;;;;4996257;28;20555;-81
2022/10/13 02:46:20;;;;;;;11.77;9.97;;;12.60;99.90;;;;;;4997036;28;20471;-81
2022/10/13 02:48:47;;;;;;;14.77;11.17;;;12.70;99.90;;;;;;4995657;28;20462;-81
2022/10/13 02:51:13;;;;;;;16.13;10.80;;;12.80;99.90;;;;;;5009331;28;20458;-82
2022/10/13 02:53:40;;;;;;;17.57;12.50;;;12.80;99.90;;;;;;4994266;28;20459;-83
2022/10/13 02:56:07;;;;;;;18.57;11.40;;;12.70;99.90;;;;;;4990943;28;20478;-81
2022/10/13 02:58:34;;;;;;;14.60;10.53;;;12.70;99.90;;;;;;4994979;28;20487;-80
2022/10/13 03:01:09;;;;;;;12.20;10.00;;;12.70;99.90;;;;;;5007789;28;20478;-80
2022/10/13 03:03:36;;;;;;;12.87;10.03;;;12.80;99.90;;;;;;5017820;28;20452;-81
2022/10/13 03:06:03;;;;;;;14.63;9.27;;;12.70;99.90;;;;;;5000821;28;20966;-81
2022/10/13 03:08:32;;;;;;;19.73;11.37;;;12.80;99.90;;;;;;4995439;28;20521;-81
2022/10/13 03:10:58;;;;;;;14.07;9.73;;;12.80;99.90;;;;;;4991917;28;20464;-80
2022/10/13 03:13:25;;;;;;;13.53;9.07;;;12.80;99.90;;;;;;4998515;28;20877;-81
2022/10/13 03:15:52;;;;;;;14.20;9.53;;;12.70;99.90;;;;;;5007790;28;21009;-81
2022/10/13 03:18:19;;;;;;;13.90;10.77;;;12.70;99.90;;;;;;5010585;28;20538;-81
2022/10/13 03:20:58;;;;;;;13.90;11.03;;;12.60;99.90;;;;;;4995191;28;20830;-81
2022/10/13 03:23:25;;;;;;;11.90;10.50;;;12.60;99.90;;;;;;5013573;28;20475;-82
2022/10/13 03:25:52;;;;;;;17.73;11.67;;;12.60;99.90;;;;;;5000791;28;20471;-82
2022/10/13 03:28:20;;;;;;;16.30;11.23;;;12.60;99.90;;;;;;4993551;28;20490;-81
2022/10/13 03:30:46;;;;;;;17.10;10.03;;;12.50;99.90;;;;;;4998581;28;20458;-81
2022/10/13 03:33:13;;;;;;;15.50;10.70;;;12.50;99.90;;;;;;5014158;28;20485;-82
2022/10/13 03:35:40;;;;;;;13.90;9.20;;;12.50;99.90;;;;;;4997665;28;20487;-82
2022/10/13 03:38:07;;;;;;;15.30;10.10;;;12.50;99.90;;;;;;4998582;28;20479;-80
2022/10/13 03:40:37;;;;;;;14.80;9.93;;;12.50;99.90;;;;;;5016773;28;20876;-81
2022/10/13 03:43:03;;;;;;;16.87;10.87;;;12.50;99.90;;;;;;5000127;28;20525;-81
2022/10/13 03:45:30;;;;;;;12.23;10.30;;;12.30;99.90;;;;;;4995057;28;20498;-81
2022/10/13 03:47:57;;;;;;;15.10;10.13;;;12.20;99.90;;;;;;4993186;28;20458;-80
2022/10/13 03:50:24;;;;;;;14.87;9.50;;;12.30;99.90;;;;;;5001611;28;20471;-79
2022/10/13 03:52:50;;;;;;;11.77;8.90;;;12.20;99.90;;;;;;4991646;28;20520;-82
2022/10/13 03:55:17;;;;;;;16.90;9.70;;;12.30;99.90;;;;;;4995004;28;20455;-81
2022/10/13 03:57:43;;;;;;;11.87;9.93;;;12.20;99.90;;;;;;5016265;28;20463;-81
2022/10/13 04:00:11;;;;;;;11.03;8.90;;;12.20;99.90;;;;;;5012698;28;20448;-83
2022/10/13 04:02:37;;;;;;;13.70;9.40;;;12.40;99.90;;;;;;5010510;28;20452;-81
2022/10/13 04:05:07;;;;;;;14.40;10.60;;;12.50;99.90;;;;;;4986365;28;20484;-81
2022/10/13 04:07:34;;;;;;;14.07;9.23;;;12.50;99.90;;;;;;4991997;28;20459;-82
2022/10/13 04:10:01;;;;;;;18.00;10.20;;;12.50;99.90;;;;;;4991670;28;20460;-80
2022/10/13 04:12:27;;;;;;;12.93;10.47;;;12.50;99.90;;;;;;5001392;28;20458;-82
2022/10/13 04:14:54;;;;;;;16.97;10.87;;;12.60;99.90;;;;;;5000240;28;20451;-82
2022/10/13 04:17:21;;;;;;;16.33;10.17;;;12.70;99.90;;;;;;4999268;28;20513;-81
2022/10/13 04:19:47;;;;;;;18.20;10.03;;;12.90;99.90;;;;;;4990941;28;20506;-81
2022/10/13 04:22:14;;;;;;;13.13;9.50;;;12.70;99.90;;;;;;5006526;28;20545;-82
2022/10/13 04:24:40;;;;;;;15.03;9.17;;;12.80;99.90;;;;;;4994692;28;20487;-81
2022/10/13 04:27:07;;;;;;;13.07;9.50;;;12.60;99.90;;;;;;4991475;28;20574;-82
2022/10/13 04:29:34;;;;;;;14.20;9.50;;;12.80;99.90;;;;;;5002905;28;20496;-81
2022/10/13 04:32:00;;;;;;;20.53;10.73;;;12.80;99.90;;;;;;5019984;28;20459;-81
2022/10/13 04:34:27;;;;;;;12.37;9.33;;;12.80;99.90;;;;;;4990172;28;20495;-81
2022/10/13 04:36:53;;;;;;;14.90;11.30;;;12.70;99.90;;;;;;4993430;28;21024;-82
2022/10/13 04:39:20;;;;;;;16.10;10.10;;;12.70;99.90;;;;;;5012738;28;20482;-81
2022/10/13 04:41:46;;;;;;;12.50;10.03;;;12.70;99.90;;;;;;5001111;28;20483;-80
2022/10/13 04:44:13;;;;;;;12.60;9.17;;;12.60;99.90;;;;;;5010774;28;20959;-83
2022/10/13 04:46:40;;;;;;;11.57;9.40;;;12.70;99.90;;;;;;5005655;28;20474;-81
2022/10/13 04:49:07;;;;;;;14.03;9.60;;;12.60;99.90;;;;;;4991386;28;20498;-82
2022/10/13 04:51:33;;;;;;;11.87;8.90;;;12.50;99.90;;;;;;4989470;28;20459;-82
2022/10/13 04:54:01;;;;;;;17.10;9.07;;;12.40;99.90;;;;;;5007485;28;20468;-82
2022/10/13 04:56:27;;;;;;;10.97;9.67;;;12.40;99.90;;;;;;4996945;28;21009;-80
2022/10/13 04:58:54;;;;;;;13.00;9.10;;;12.60;99.90;;;;;;4998541;28;20521;-81
2022/10/13 05:01:23;;;;;;;13.23;9.30;;;12.60;99.90;;;;;;4996714;28;20479;-80
2022/10/13 05:03:52;;;;;;;13.33;9.00;;;12.60;99.90;;;;;;5005883;28;20455;-81
2022/10/13 05:06:22;;;;;;;15.30;9.40;;;12.70;99.90;;;;;;5031414;28;20474;-81
2022/10/13 05:08:49;;;;;;;10.70;8.63;;;12.90;99.90;;;;;;5016176;28;20455;-79
2022/10/13 05:11:18;;;;;;;12.53;8.93;;;12.90;99.90;;;;;;5003097;28;20455;-80
2022/10/13 05:13:46;;;;;;;13.77;10.23;;;12.90;99.90;;;;;;5000973;28;20521;-83
2022/10/13 05:16:15;;;;;;;12.77;9.30;;;12.90;99.90;;;;;;4984678;28;20541;-82
2022/10/13 05:18:42;;;;;;;11.30;9.00;;;12.80;99.90;;;;;;4996794;28;20993;-82
2022/10/13 05:21:12;;;;;;;13.30;9.27;;;12.70;99.90;;;;;;4981271;28;20496;-80
2022/10/13 05:23:40;;;;;;;12.93;8.97;;;12.60;99.90;;;;;;4993527;28;20450;-81
2022/10/13 05:26:13;;;;;;;14.13;9.37;;;12.50;99.90;;;;;;4990491;28;20541;-82
2022/10/13 05:28:39;;;;;;;15.33;8.80;;;12.50;99.90;;;;;;4986796;28;20831;-83
2022/10/13 05:31:18;;;;;;;13.97;9.97;;;12.70;99.90;;;;;;5001989;28;20465;-81
2022/10/13 05:33:46;;;;;;;12.03;8.87;;;12.80;99.90;;;;;;4999926;28;20474;-81
2022/10/13 05:36:15;;;;;;;15.93;9.93;;;12.70;99.90;;;;;;4993936;28;20507;-80
2022/10/13 05:38:42;;;;;;;13.37;9.87;;;12.80;99.90;;;;;;5016932;28;20500;-79
2022/10/13 05:41:11;;;;;;;14.57;10.27;;;12.80;99.90;;;;;;5000454;28;20957;-82
2022/10/13 05:43:39;;;;;;;12.10;8.97;;;12.80;99.90;;;;;;4999376;28;20480;-82
2022/10/13 05:46:07;;;;;;;18.47;9.60;;;12.80;99.90;;;;;;4996889;28;20510;-83
2022/10/13 05:48:33;;;;;;;12.20;9.13;;;12.70;99.90;;;;;;5000382;28;20506;-83
2022/10/13 05:51:05;;;;;;;18.67;10.53;;;12.50;99.90;;;;;;4998962;28;20462;-83
2022/10/13 05:53:36;;;;;;;15.07;9.13;;;12.60;99.90;;;;;;4999877;28;20517;-81
2022/10/13 05:56:10;;;;;;;14.37;9.37;;;12.40;99.90;;;;;;5021245;28;20568;-84
2022/10/13 05:58:43;;;;;;;15.93;9.83;;;12.40;99.90;;;;;;5011285;28;20478;-82
2022/10/13 06:01:13;;;;;;;11.30;8.77;;;12.70;99.90;;;;;;5013328;28;20472;-82
2022/10/13 06:03:41;;;;;;;10.47;8.20;;;12.60;99.90;;;;;;4997490;28;20466;-82
2022/10/13 06:06:08;;;;;;;10.57;8.70;;;12.60;99.90;;;;;;5000878;28;20493;-81
2022/10/13 06:08:36;;;;;;;15.40;9.03;;;12.50;99.90;;;;;;5008791;28;20475;-81
2022/10/13 06:11:03;;;;;;;13.70;8.27;;;12.40;99.90;;;;;;4990348;28;20479;-81
2022/10/13 06:13:30;;;;;;;14.67;8.30;;;12.70;99.90;;;;;;4996634;28;21027;-82
2022/10/13 06:15:57;;;;;;;14.23;8.30;;;12.70;99.90;;;;;;4999364;28;20554;-82
2022/10/13 06:18:26;;;;;;;13.83;9.17;;;12.70;99.90;;;;;;4992798;28;20501;-81
2022/10/13 06:20:53;;;;;;;11.87;8.93;;;12.60;99.90;;;;;;4995704;28;20590;-81
2022/10/13 06:23:20;;;;;;;16.87;9.47;;;12.60;99.90;;;;;;4998853;28;20456;-81
2022/10/13 06:25:51;;;;;;;14.43;8.50;;;12.60;99.90;;;;;;5019763;28;20545;-81
2022/10/13 06:28:18;;;;;;;15.13;9.23;;;12.60;99.90;;;;;;5005338;28;20855;-81
2022/10/13 06:30:52;;;;;;;14.50;9.40;;;12.60;99.90;;;;;;5001451;28;20827;-81
2022/10/13 06:33:20;;;;;;;10.93;8.40;;;12.60;99.90;;;;;;4998201;28;20486;-83
2022/10/13 06:35:47;;;;;;;13.77;8.90;;;12.60;99.90;;;;;;4997484;28;20474;-83
2022/10/13 06:38:13;;;;;;;13.73;8.53;;;12.60;99.90;;;;;;4999320;28;20463;-83
2022/10/13 06:40:41;;;;;;;15.27;9.20;;;12.70;99.90;;;;;;5013520;28;20495;-82
2022/10/13 06:43:07;;;;;;;12.03;9.07;;;12.60;99.90;;;;;;5002386;28;20487;-84
2022/10/13 06:45:34;;;;;;;15.80;9.60;;;12.80;99.90;;;;;;4994549;28;20484;-81
2022/10/13 06:48:04;;;;;;;15.30;10.37;;;12.80;99.90;;;;;;4984804;28;20501;-84
2022/10/13 06:50:33;;;;;;;11.70;9.57;;;12.80;99.90;;;;;;5003316;28;20452;-83
2022/10/13 06:53:00;;;;;;;13.80;9.57;;;12.70;99.90;;;;;;4990905;28;20467;-81
2022/10/13 06:55:34;;;;;;;13.30;8.03;;;12.70;99.90;;;;;;4997540;28;20976;-83
2022/10/13 06:58:01;;;;;;;12.40;9.10;;;12.70;99.90;;;;;;5016492;28;20517;-83
2022/10/13 07:00:31;;;;;;;12.87;8.37;;;12.80;99.90;;;;;;4992561;28;20487;-82
2022/10/13 07:02:58;;;;;;;11.97;9.27;;;12.90;99.90;;;;;;4995107;28;20447;-83
2022/10/13 07:05:25;;;;;;;12.37;8.60;;;12.80;99.90;;;;;;4997464;28;20470;-82
2022/10/13 07:07:58;;;;;;;14.67;11.10;;;12.80;99.90;;;;;;4999866;28;20534;-82
2022/10/13 07:10:31;;;;;;;12.70;9.00;;;12.90;99.90;;;;;;4992963;28;20452;-84
2022/10/13 07:12:58;;;;;;;17.50;9.70;;;12.90;99.90;;;;;;4993636;28;20467;-81
2022/10/13 07:15:25;;;;;;;14.93;9.37;;;13.00;99.90;;;;;;4984521;28;20592;-82
2022/10/13 07:17:52;;;;;;;12.53;9.60;;;13.10;99.90;;;;;;4996422;28;20467;-82
2022/10/13 07:20:23;;;;;;;12.13;8.70;;;13.20;99.90;;;;;;5001564;28;20509;-83
2022/10/13 07:22:56;;;;;;;13.90;9.27;;;13.10;99.90;;;;;;5014719;28;20451;-82
2022/10/13 07:25:24;;;;;;;12.57;9.60;;;13.10;99.90;;;;;;4993378;28;20451;-81
2022/10/13 07:27:53;;;;;;;13.43;11.13;;;13.10;99.90;;;;;;5006954;28;20457;-83
2022/10/13 07:30:20;;;;;;;11.83;9.30;;;13.20;99.90;;;;;;5001190;28;20470;-81
2022/10/13 07:32:50;;;;;;;15.10;9.57;;;13.50;99.90;;;;;;5021517;28;20450;-83
2022/10/13 07:35:17;;;;;;;13.27;8.90;;;13.90;99.90;;;;;;5000391;28;20451;-83
2022/10/13 07:37:46;;;;;;;10.50;8.63;;;13.90;99.90;;;;;;4998766;28;20438;-83
2022/10/13 07:40:13;;;;;;;15.03;8.40;;;14.10;99.90;;;;;;5014093;28;20484;-82
2022/10/13 07:42:40;;;;;;;11.00;8.27;;;14.30;99.90;;;;;;4995346;28;20444;-82
2022/10/13 07:45:08;;;;;;;11.10;9.20;;;14.30;99.90;;;;;;5003978;28;20455;-81
2022/10/13 07:47:37;;;;;;;11.33;9.07;;;14.50;99.90;;;;;;4996710;28;20814;-83
2022/10/13 07:50:05;;;;;;;11.60;8.03;;;14.70;99.90;;;;;;4994686;28;20967;-83
2022/10/13 07:52:33;;;;;;;12.67;9.67;;;14.90;99.90;;;;;;4997812;28;20482;-82
2022/10/13 07:55:00;;;;;;;14.03;8.87;;;14.80;99.90;;;;;;5001599;28;20455;-82
2022/10/13 07:57:38;;;;;;;13.20;9.03;;;14.50;99.90;;;;;;5012821;28;20530;-85
2022/10/13 08:00:13;;;;;;;13.13;9.93;;;14.20;99.90;;;;;;5006268;28;20548;-81
2022/10/13 08:02:55;;;;;;;11.07;9.50;;;14.30;99.90;;;;;;5011390;28;20458;-82
2022/10/13 08:05:24;;;;;;;12.07;9.00;;;14.00;99.90;;;;;;5012188;28;20578;-80
2022/10/13 08:07:51;;;;;;;14.17;10.70;;;14.00;99.90;;;;;;4987457;28;20470;-82
2022/10/13 08:10:23;;;;;;;12.07;9.40;;;14.20;99.90;;;;;;5004074;28;20456;-81
2022/10/13 08:12:50;;;;;;;16.20;9.60;;;14.00;99.90;;;;;;4996390;28;20456;-83
2022/10/13 08:15:19;;;;;;;12.33;9.30;;;14.20;99.90;;;;;;5007316;28;20450;-80
2022/10/13 08:17:49;;;;;;;10.80;8.63;;;14.30;99.90;;;;;;5000980;28;20988;-80
2022/10/13 08:20:16;;;;;;;11.57;8.23;;;14.00;99.90;;;;;;5019696;28;20474;-79
2022/10/13 08:22:43;;;;;;;11.17;8.30;;;14.00;99.90;;;;;;5002931;28;20483;-79
2022/10/13 08:25:10;;;;;;;11.03;8.97;;;14.00;99.90;;;;;;4999136;28;20467;-80
2022/10/13 08:27:37;;;;;;;12.03;9.50;;;14.30;99.90;;;;;;4997795;28;20457;-79
2022/10/13 08:30:16;;;;;;;12.43;9.23;;;14.40;99.90;;;;;;5010402;28;20504;-80
2022/10/13 08:32:44;;;;;;;10.80;8.53;;;14.40;99.90;;;;;;5019805;28;20450;-81
2022/10/13 08:35:13;;;;;;;13.90;9.80;;;14.60;99.90;;;;;;5015264;28;20475;-82
2022/10/13 08:37:41;;;;;;;15.77;10.47;;;14.80;99.90;;;;;;5001165;28;20530;-79
2022/10/13 08:40:15;;;;;;;12.30;9.73;;;14.80;99.90;;;;;;5015575;28;20478;-79
2022/10/13 08:42:45;;;;;;;12.17;9.93;;;14.90;99.90;;;;;;4991529;28;20482;-81
2022/10/13 08:45:29;;;;;;;15.90;9.80;;;14.70;99.90;;;;;;5014787;28;20470;-80
2022/10/13 08:48:17;;;;;;;11.63;9.33;;;14.70;99.90;;;;;;5009174;28;20466;-79
2022/10/13 08:50:48;;;;;;;13.30;9.03;;;14.70;99.90;;;;;;4987560;28;20840;-82
2022/10/13 08:53:27;;;;;;;17.13;9.67;;;14.60;99.90;;;;;;4999205;28;20548;-82
2022/10/13 08:56:24;;;;;;;13.67;9.60;;;14.50;99.90;;;;;;4995652;28;20498;-82
2022/10/13 08:58:55;;;;;;;14.07;10.20;;;14.30;99.90;;;;;;5013067;28;20514;-82
2022/10/13 09:01:26;;;;;;;12.07;9.17;;;14.50;99.90;;;;;;4996141;28;20456;-82
2022/10/13 09:04:10;;;;;;;11.90;9.30;;;14.50;99.90;;;;;;4997915;28;20517;-81
2022/10/13 09:06:51;;;;;;;12.43;9.60;;;14.80;99.90;;;;;;4981757;28;20475;-82
2022/10/13 09:09:18;;;;;;;15.27;10.40;;;15.00;99.90;;;;;;4997592;28;20546;-82
2022/10/13 09:11:48;;;;;;;13.97;9.60;;;15.00;99.90;;;;;;4997220;28;20467;-83
2022/10/13 09:14:26;;;;;;;12.73;9.40;;;15.00;99.90;;;;;;4998724;28;20481;-83
2022/10/13 09:16:58;;;;;;;12.37;8.90;;;15.10;99.90;;;;;;4994512;28;20486;-81
2022/10/13 09:19:26;;;;;;;14.70;9.50;;;15.20;99.90;;;;;;5009895;28;20583;-82
2022/10/13 09:22:12;;;;;;;14.27;9.37;;;15.20;99.90;;;;;;5003065;28;20442;-81
2022/10/13 09:24:39;;;;;;;12.03;9.10;;;15.30;99.90;;;;;;5000631;28;20454;-83
2022/10/13 09:27:16;;;;;;;13.63;10.50;;;15.40;99.90;;;;;;4997399;28;20489;-81
2022/10/13 09:29:44;;;;;;;15.13;10.30;;;15.40;99.90;;;;;;5010102;28;20527;-82
2022/10/13 09:32:20;;;;;;;11.23;9.53;;;15.50;99.90;;;;;;4997611;28;20477;-82
2022/10/13 09:34:48;;;;;;;12.77;9.40;;;15.60;99.90;;;;;;4986783;28;20461;-82
2022/10/13 09:37:21;;;;;;;11.73;10.27;;;15.50;99.90;;;;;;4987876;28;20498;-82
2022/10/13 09:40:13;;;;;;;10.30;8.37;;;15.70;99.90;;;;;;5004384;28;20479;-82
2022/10/13 09:42:40;;;;;;;16.90;9.53;;;15.80;99.90;;;;;;5004296;28;20460;-83
2022/10/13 09:45:22;;;;;;;12.80;9.30;;;16.20;99.90;;;;;;5001621;28;20452;-82
2022/10/13 09:47:57;;;;;;;16.73;10.63;;;16.30;99.90;;;;;;4999488;28;20446;-82
2022/10/13 09:50:33;;;;;;;9.43;8.30;;;16.30;99.90;;;;;;4995105;28;20463;-81
2022/10/13 09:53:33;;;;;;;13.27;10.10;;;16.40;99.90;;;;;;4999082;28;20465;-81
2022/10/13 09:56:29;;;;;;;12.70;8.97;;;16.60;99.60;;;;;;4996424;28;20542;-82
2022/10/13 09:59:12;;;;;;;11.77;9.50;;;16.70;99.10;;;;;;4985429;28;20467;-81
2022/10/13 10:01:42;;;;;;;12.83;9.83;;;16.70;99.00;;;;;;5013340;28;20549;-83
2022/10/13 10:04:13;;;;;;;13.70;9.80;;;16.60;99.50;;;;;;5000068;28;20463;-83
2022/10/13 10:06:41;;;;;;;11.80;10.10;;;16.40;99.90;;;;;;5002861;28;20482;-83
2022/10/13 10:09:39;;;;;;;13.30;9.90;;;16.60;99.90;;;;;;5003102;28;20463;-83
2022/10/13 10:12:12;;;;;;;12.03;8.73;;;16.80;99.50;;;;;;5001864;28;20450;-84
2022/10/13 10:14:39;;;;;;;12.47;9.70;;;17.00;99.30;;;;;;5008377;28;20502;-84
2022/10/13 10:17:19;;;;;;;15.63;10.40;;;17.00;99.10;;;;;;5008506;28;20467;-83
2022/10/13 10:20:15;;;;;;;13.20;9.30;;;17.10;99.30;;;;;;5007758;28;20553;-84
2022/10/13 10:22:55;;;;;;;14.57;9.10;;;16.80;99.00;;;;;;4999582;28;20492;-85
2022/10/13 10:25:25;;;;;;;11.23;8.70;;;17.10;99.50;;;;;;5019791;28;20455;-82
2022/10/13 10:28:07;;;;;;;12.93;8.53;;;17.30;98.90;;;;;;5018798;28;20466;-83
2022/10/13 10:30:42;;;;;;;11.90;8.27;;;17.30;98.80;;;;;;4999462;28;20436;-83
2022/10/13 10:33:14;;;;;;;17.60;9.50;;;17.30;98.80;;;;;;5018461;28;20446;-82
2022/10/13 10:35:53;;;;;;;17.03;10.10;;;17.10;99.20;;;;;;5018220;28;20455;-83
2022/10/13 10:38:37;;;;;;;11.97;9.23;;;17.30;99.10;;;;;;5014702;28;20439;-82
2022/10/13 10:41:26;;;;;;;11.40;9.07;;;17.30;99.00;;;;;;5006581;28;20467;-83
2022/10/13 10:44:27;;;;;;;12.37;9.07;;;17.40;99.00;;;;;;4997346;28;20532;-82
2022/10/13 10:47:00;;;;;;;11.93;8.87;;;17.50;98.80;;;;;;4993369;28;20532;-83
2022/10/13 10:49:39;;;;;;;14.47;9.23;;;17.60;98.60;;;;;;4990331;28;20500;-84
2022/10/13 10:52:09;;;;;;;10.13;8.63;;;17.80;98.20;;;;;;5003855;28;20448;-83
2022/10/13 10:54:39;;;;;;;12.33;8.77;;;17.70;98.10;;;;;;4999568;28;20453;-84
2022/10/13 10:57:20;;;;;;;10.43;9.20;;;17.70;98.20;;;;;;4998146;28;20475;-83
2022/10/13 11:00:12;;;;;;;21.80;8.60;;;17.80;98.10;;;;;;5001712;28;20567;-83
2022/10/13 11:02:48;;;;;;;12.53;8.83;;;17.80;98.30;;;;;;5004885;28;20965;-84
2022/10/13 11:05:16;;;;;;;11.10;8.03;;;17.90;98.30;;;;;;5000973;28;20464;-83
2022/10/13 11:07:43;;;;;;;12.30;9.03;;;17.80;98.40;;;;;;5003907;28;20448;-83
2022/10/13 11:10:12;;;;;;;12.03;9.40;;;17.90;98.50;;;;;;5005236;28;20459;-84
2022/10/13 11:12:54;;;;;;;13.03;8.03;;;18.00;98.10;;;;;;5031639;28;20451;-85
2022/10/13 11:15:40;;;;;;;12.03;8.60;;;18.00;98.30;;;;;;5033466;28;20498;-84
2022/10/13 11:18:46;;;;;;;15.80;8.90;;;17.80;98.20;;;;;;5019674;28;20474;-85
2022/10/13 11:21:19;;;;;;;10.17;8.80;;;18.00;98.20;;;;;;5007820;28;20486;-85
2022/10/13 11:23:52;;;;;;;10.60;8.57;;;18.10;98.00;;;;;;5000216;28;20456;-84
2022/10/13 11:26:45;;;;;;;11.93;8.60;;;18.10;97.80;;;;;;5004484;28;20542;-83
2022/10/13 11:29:18;;;;;;;10.63;8.10;;;18.10;97.90;;;;;;5020882;28;20439;-84
2022/10/13 11:31:53;;;;;;;10.20;7.17;;;17.90;98.10;;;;;;5000740;28;20455;-83
2022/10/13 11:34:30;;;;;;;11.70;7.40;;;18.00;98.30;;;;;;4998928;28;20485;-85
2022/10/13 11:37:00;;;;;;;9.67;7.27;;;18.00;98.50;;;;;;5027046;28;20465;-83
2022/10/13 11:39:51;;;;;;;15.47;9.63;;;18.00;98.50;;;;;;5023791;28;20459;-83
2022/10/13 11:42:37;;;;;;;11.80;8.77;;;17.90;98.80;;;;;;5003763;28;20554;-84
2022/10/13 11:45:14;;;;;;;11.67;7.97;;;17.70;99.40;;;;;;4999434;28;20493;-84
2022/10/13 11:47:59;;;;;;;11.60;8.37;;;17.80;99.80;;;;;;4997365;28;20451;-84
2022/10/13 11:50:50;;;;;;;13.13;8.60;;;17.90;99.90;;;;;;4986539;28;20535;-84
2022/10/13 11:53:30;;;;;;;9.90;7.10;;;17.90;99.90;;;;;;4993922;28;20474;-83
2022/10/13 11:56:02;;;;;;;14.20;8.20;;;18.00;99.90;;;;;;4994489;28;20493;-83
2022/10/13 11:58:43;;;;;;;9.43;8.13;;;18.20;99.50;;;;;;5011348;28;20497;-82
2022/10/13 12:01:15;;;;;;;9.13;8.13;;;18.10;99.60;;;;;;5000818;28;20471;-82
2022/10/13 12:03:48;;;;;;;8.00;6.67;;;18.00;99.60;;;;;;4995034;28;20534;-83
2022/10/13 12:06:31;;;;;;;7.70;5.83;;;17.80;99.90;;;;;;5017348;28;20508;-83
2022/10/13 12:09:01;;;;;;;7.80;5.60;;;17.90;99.90;;;;;;5022940;28;20533;-82
2022/10/13 12:11:31;;;;;;;5.70;4.90;;;18.10;98.40;;;;;;5006931;28;20473;-83
2022/10/13 12:13:59;;;;;;;11.60;5.70;;;18.10;98.30;;;;;;5016672;28;20496;-82
2022/10/13 12:16:29;;;;;;;8.07;5.73;;;18.10;98.60;;;;;;5005807;28;20474;-83
2022/10/13 12:19:21;;;;;;;6.33;5.60;;;17.90;98.60;;;;;;5010904;28;20446;-83
2022/10/13 12:21:56;;;;;;;6.07;5.00;;;17.70;98.90;;;;;;5002934;28;20478;-83
2022/10/13 12:24:31;;;;;;;8.27;5.50;;;17.60;99.00;;;;;;4989937;28;20463;-83
2022/10/13 12:27:12;;;;;;;5.90;4.77;;;17.60;99.20;;;;;;4989351;28;20543;-83
2022/10/13 12:29:41;;;;;;;6.90;5.57;;;17.80;99.30;;;;;;4991358;28;20451;-83
2022/10/13 12:32:27;;;;;;;10.70;5.80;;;18.20;98.80;;;;;;4992344;28;20459;-81
2022/10/13 12:35:16;;;;;;;7.57;6.00;;;18.50;98.20;;;;;;4993194;28;20478;-82
2022/10/13 12:37:47;;;;;;;8.27;6.17;;;18.70;97.10;;;;;;5019007;28;20434;-84
2022/10/13 12:40:24;;;;;;;10.70;5.60;;;18.60;96.60;;;;;;5019821;28;20478;-83
2022/10/13 12:42:57;;;;;;;8.33;5.87;;;18.40;96.70;;;;;;5015435;28;20447;-84
2022/10/13 12:45:32;;;;;;;9.90;5.80;;;18.40;97.30;;;;;;4998245;28;21042;-83
2022/10/13 12:57:11;;;;;;;8.70;5.60;;;18.40;98.00;;;;;;4939496;29;20477;-83
2022/10/13 13:00:26;;;;;;;7.23;6.53;;;18.30;98.10;;;;;;4933494;29;20428;-84
2022/10/13 13:03:05;;;;;;;8.70;7.17;;;18.20;98.60;;;;;;4953710;28;20552;-84
2022/10/13 13:05:44;;;;;;;9.43;6.33;;;18.10;98.60;;;;;;4951179;28;20475;-84
2022/10/13 13:08:30;;;;;;;7.37;6.23;;;18.00;98.70;;;;;;4953447;28;20537;-85
2022/10/13 13:14:36;;;;;;;7.10;6.40;;;18.10;99.20;;;;;;5001555;28;20921;-83
2022/10/13 13:20:42;;;;;;;8.70;7.20;;;17.90;98.80;;;;;;4934536;29;20480;-84